createdAt,value
2019-05-26T00:00:46.363Z,8.90
2019-05-26T00:03:12.922Z,8.53
2019-05-26T00:05:39.499Z,8.93
2019-05-26T00:08:06.168Z,8.57
2019-05-26T00:10:32.743Z,8.63
2019-05-26T00:12:59.313Z,8.37
2019-05-26T00:15:25.968Z,8.27
2019-05-26T00:17:52.586Z,8.80
2019-05-26T00:20:19.162Z,8.47
2019-05-26T00:22:45.728Z,8.27
2019-05-26T00:25:12.599Z,8.40
2019-05-26T00:27:39.181Z,8.43
2019-05-26T00:30:06.647Z,7.63
2019-05-26T00:32:33.246Z,7.90
2019-05-26T00:34:59.843Z,7.90
2019-05-26T00:37:26.414Z,7.97
2019-05-26T00:39:52.985Z,7.67
2019-05-26T00:42:19.776Z,8.03
2019-05-26T00:44:46.359Z,8.33
2019-05-26T00:47:12.914Z,8.00
2019-05-26T00:49:39.492Z,8.10
2019-05-26T00:52:06.161Z,8.00
2019-05-26T00:54:32.726Z,8.00
2019-05-26T00:56:59.391Z,8.03
2019-05-26T00:59:25.991Z,8.37
2019-05-26T01:01:52.554Z,8.33
2019-05-26T01:04:19.163Z,8.07
2019-05-26T01:06:45.722Z,8.30
2019-05-26T01:09:12.321Z,8.00
2019-05-26T01:11:38.873Z,7.90
2019-05-26T01:14:05.445Z,9.00
2019-05-26T01:16:32.111Z,8.90
2019-05-26T01:18:58.730Z,9.00
2019-05-26T01:21:25.339Z,9.10
2019-05-26T01:23:51.902Z,8.73
2019-05-26T01:26:18.484Z,8.77
2019-05-26T01:28:45.298Z,9.13
2019-05-26T01:31:11.870Z,8.87
2019-05-26T01:33:38.439Z,9.07
2019-05-26T01:36:05.040Z,8.80
2019-05-26T01:38:31.799Z,9.20
2019-05-26T01:40:58.463Z,9.43
2019-05-26T01:43:25.322Z,9.50
2019-05-26T01:45:51.897Z,10.03
2019-05-26T01:48:18.470Z,10.10
2019-05-26T01:50:45.038Z,9.80
2019-05-26T01:53:11.616Z,9.70
2019-05-26T01:55:56.431Z,10.07
2019-05-26T01:58:23.013Z,10.20
2019-05-26T02:00:50.029Z,10.60
2019-05-26T02:03:16.598Z,11.00
2019-05-26T02:05:58.467Z,10.50
2019-05-26T02:08:38.296Z,10.13
2019-05-26T02:10:53.518Z,9.80
2019-05-26T02:13:20.315Z,10.50
2019-05-26T02:15:46.887Z,10.30
2019-05-26T02:18:13.551Z,10.50
2019-05-26T02:20:40.324Z,10.70
2019-05-26T02:23:07.892Z,12.60
2019-05-26T02:25:34.471Z,13.57
2019-05-26T02:28:01.155Z,13.63
2019-05-26T02:30:27.773Z,16.87
2019-05-26T02:32:54.440Z,17.43
2019-05-26T02:35:21.106Z,16.37
2019-05-26T02:37:47.667Z,15.57
2019-05-26T02:40:14.839Z,15.47
2019-05-26T02:42:41.770Z,14.13
2019-05-26T02:45:08.749Z,14.80
2019-05-26T02:47:35.307Z,14.27
2019-05-26T02:50:02.699Z,14.67
2019-05-26T02:52:29.247Z,14.87
2019-05-26T02:54:55.828Z,16.07
2019-05-26T02:57:22.668Z,16.43
2019-05-26T02:59:49.247Z,17.43
2019-05-26T03:02:15.806Z,17.97
2019-05-26T03:04:42.479Z,18.63
2019-05-26T03:07:09.944Z,19.10
2019-05-26T03:09:37.803Z,19.90
2019-05-26T03:12:04.640Z,20.40
2019-05-26T03:14:31.879Z,21.13
2019-05-26T03:16:59.656Z,21.97
2019-05-26T03:19:31.027Z,21.57
2019-05-26T03:21:57.803Z,23.00
2019-05-26T03:24:26.258Z,23.70
2019-05-26T03:26:52.835Z,24.57
2019-05-26T03:29:19.619Z,27.20
2019-05-26T03:31:46.259Z,25.83
2019-05-26T03:34:12.884Z,26.03
2019-05-26T03:36:39.515Z,27.43
2019-05-26T03:39:06.238Z,26.40
2019-05-26T03:41:32.894Z,25.70
2019-05-26T03:43:59.780Z,27.10
2019-05-26T03:46:26.353Z,28.17
2019-05-26T03:48:53.004Z,28.63
2019-05-26T03:51:19.790Z,27.33
2019-05-26T03:53:46.350Z,28.33
2019-05-26T03:56:13.014Z,27.93
2019-05-26T03:58:39.614Z,28.53
2019-05-26T04:01:06.181Z,28.87
2019-05-26T04:03:32.759Z,28.67
2019-05-26T04:05:59.311Z,28.70
2019-05-26T04:08:25.879Z,28.17
2019-05-26T04:10:52.444Z,28.47
2019-05-26T04:13:19.127Z,28.90
2019-05-26T04:15:45.705Z,28.67
2019-05-26T04:18:12.371Z,28.83
2019-05-26T04:20:39.019Z,28.83
2019-05-26T04:23:05.792Z,29.17
2019-05-26T04:25:32.443Z,27.90
2019-05-26T04:27:59.046Z,28.20
2019-05-26T04:30:25.602Z,28.50
2019-05-26T04:32:52.201Z,27.77
2019-05-26T04:35:18.755Z,27.77
2019-05-26T04:37:45.384Z,27.93
2019-05-26T04:40:25.870Z,27.63
2019-05-26T04:42:40.533Z,26.30
2019-05-26T04:45:07.247Z,26.40
2019-05-26T04:47:33.879Z,26.23
2019-05-26T04:50:00.464Z,25.83
2019-05-26T04:52:27.055Z,26.83
2019-05-26T04:54:53.623Z,26.70
2019-05-26T04:57:20.262Z,26.43
2019-05-26T04:59:46.831Z,25.13
2019-05-26T05:02:13.448Z,67.03
2019-05-26T05:04:40.092Z,52.07
2019-05-26T05:07:06.823Z,28.90
2019-05-26T05:09:33.446Z,25.27
2019-05-26T05:12:00.067Z,51.17
2019-05-26T05:14:26.704Z,80.97
2019-05-26T05:16:53.314Z,125.07
2019-05-26T05:19:19.958Z,29.70
2019-05-26T05:21:46.566Z,31.73
2019-05-26T05:24:13.210Z,23.97
2019-05-26T05:26:39.817Z,22.77
2019-05-26T05:29:06.490Z,22.47
2019-05-26T05:31:33.133Z,22.83
2019-05-26T05:33:59.890Z,22.70
2019-05-26T05:36:26.696Z,22.77
2019-05-26T05:38:53.454Z,22.40
2019-05-26T05:41:20.166Z,21.63
2019-05-26T05:43:46.798Z,21.33
2019-05-26T05:46:13.420Z,21.07
2019-05-26T05:48:40.030Z,19.47
2019-05-26T05:51:07.694Z,20.60
2019-05-26T05:53:34.318Z,19.63
2019-05-26T05:56:01.060Z,19.57
2019-05-26T05:58:27.763Z,19.57
2019-05-26T06:00:54.363Z,18.40
2019-05-26T06:03:20.966Z,18.10
2019-05-26T06:05:47.554Z,17.43
2019-05-26T06:08:14.215Z,17.83
2019-05-26T06:10:40.836Z,17.37
2019-05-26T06:13:07.532Z,16.27
2019-05-26T06:15:34.167Z,16.50
2019-05-26T06:18:00.726Z,17.47
2019-05-26T06:20:27.378Z,58.00
2019-05-26T06:22:54.134Z,27.17
2019-05-26T06:25:20.743Z,14.67
2019-05-26T06:27:47.319Z,14.10
2019-05-26T06:30:14.092Z,13.13
2019-05-26T06:32:40.794Z,13.10
2019-05-26T06:35:07.388Z,13.20
2019-05-26T06:37:34.077Z,12.67
2019-05-26T06:40:00.745Z,12.87
2019-05-26T06:42:27.373Z,12.50
2019-05-26T06:44:54.299Z,12.83
2019-05-26T06:47:20.989Z,12.33
2019-05-26T06:49:47.588Z,11.20
2019-05-26T06:52:14.190Z,12.10
2019-05-26T06:54:40.763Z,12.00
2019-05-26T06:57:07.351Z,12.00
2019-05-26T06:59:33.920Z,11.90
2019-05-26T07:02:00.510Z,11.17
2019-05-26T07:04:27.080Z,11.53
2019-05-26T07:06:53.760Z,10.87
2019-05-26T07:09:20.335Z,14.43
2019-05-26T07:11:55.585Z,13.03
2019-05-26T07:14:15.389Z,13.57
2019-05-26T07:16:41.952Z,10.57
2019-05-26T07:19:08.538Z,10.30
2019-05-26T07:21:35.111Z,9.47
2019-05-26T07:24:01.851Z,9.00
2019-05-26T07:26:29.170Z,7.73
2019-05-26T07:28:55.851Z,7.37
2019-05-26T07:31:22.487Z,7.30
2019-05-26T07:33:49.172Z,6.60
2019-05-26T07:36:15.788Z,7.13
2019-05-26T07:38:42.485Z,6.37
2019-05-26T07:41:09.334Z,6.70
2019-05-26T07:43:35.940Z,7.30
2019-05-26T07:46:02.735Z,6.50
2019-05-26T07:48:29.720Z,6.43
2019-05-26T07:50:56.404Z,6.03
2019-05-26T07:53:23.018Z,5.73
2019-05-26T07:55:49.618Z,6.03
2019-05-26T07:58:16.206Z,6.07
2019-05-26T08:00:42.814Z,6.00
2019-05-26T08:03:09.506Z,7.13
2019-05-26T08:05:36.103Z,5.77
2019-05-26T08:08:12.070Z,5.27
2019-05-26T08:10:31.383Z,9.17
2019-05-26T08:12:58.006Z,29.10
2019-05-26T08:15:24.618Z,14.70
2019-05-26T08:17:51.289Z,4.90
2019-05-26T08:20:18.094Z,4.70
2019-05-26T08:22:44.712Z,4.33
2019-05-26T08:25:11.572Z,4.60
2019-05-26T08:27:38.178Z,5.07
2019-05-26T08:30:05.011Z,4.30
2019-05-26T08:32:31.638Z,4.77
2019-05-26T08:34:58.276Z,4.53
2019-05-26T08:37:25.079Z,3.50
2019-05-26T08:39:51.707Z,2.80
2019-05-26T08:42:26.924Z,2.40
2019-05-26T08:44:46.854Z,2.70
2019-05-26T08:47:13.579Z,2.80
2019-05-26T08:49:40.207Z,2.47
2019-05-26T08:52:06.821Z,2.60
2019-05-26T08:54:33.446Z,2.50
2019-05-26T08:57:00.134Z,2.40
2019-05-26T08:59:26.858Z,2.60
2019-05-26T09:01:53.446Z,2.37
2019-05-26T09:04:20.082Z,2.43
2019-05-26T09:06:46.747Z,2.30
2019-05-26T09:09:13.370Z,7.33
2019-05-26T09:11:39.974Z,3.10
2019-05-26T09:14:06.686Z,2.00
2019-05-26T09:16:33.518Z,2.33
2019-05-26T09:19:00.106Z,2.27
2019-05-26T09:21:26.727Z,2.00
2019-05-26T09:23:53.330Z,2.13
2019-05-26T09:26:19.947Z,1.80
2019-05-26T09:28:46.541Z,1.80
2019-05-26T09:31:13.184Z,1.93
2019-05-26T09:33:39.862Z,1.70
2019-05-26T09:36:06.490Z,1.70
2019-05-26T09:38:33.111Z,1.63
2019-05-26T09:40:59.757Z,1.87
2019-05-26T09:43:26.563Z,2.10
2019-05-26T09:45:53.201Z,2.80
2019-05-26T09:48:19.934Z,10.57
2019-05-26T09:50:46.562Z,2.20
2019-05-26T09:53:13.135Z,1.97
2019-05-26T09:55:39.690Z,3.13
2019-05-26T09:58:06.275Z,1.50
2019-05-26T10:00:32.829Z,1.63
2019-05-26T10:02:59.438Z,2.03
2019-05-26T10:05:26.158Z,2.20
2019-05-26T10:07:52.889Z,1.60
2019-05-26T10:10:19.829Z,1.40
2019-05-26T10:12:46.530Z,3.33
2019-05-26T10:15:14.422Z,2.30
2019-05-26T10:17:41.004Z,1.57
2019-05-26T10:20:08.228Z,1.63
2019-05-26T10:22:35.004Z,2.50
2019-05-26T10:25:02.375Z,97.93
2019-05-26T10:27:29.095Z,1.73
2019-05-26T10:29:55.815Z,3.17
2019-05-26T10:32:22.466Z,1.30
2019-05-26T10:34:49.095Z,1.80
2019-05-26T10:37:16.053Z,1.60
2019-05-26T10:39:44.983Z,1.90
2019-05-26T10:42:11.206Z,1.53
2019-05-26T10:44:37.814Z,1.73
2019-05-26T10:47:04.454Z,3.87
2019-05-26T10:49:31.075Z,2.87
2019-05-26T10:51:57.818Z,1.60
2019-05-26T10:54:24.438Z,1.60
2019-05-26T10:56:51.149Z,1.70
2019-05-26T10:59:17.799Z,1.73
2019-05-26T11:01:44.634Z,1.70
2019-05-26T11:04:11.268Z,1.70
2019-05-26T11:06:37.874Z,1.40
2019-05-26T11:09:05.318Z,1.50
2019-05-26T11:11:31.935Z,1.40
2019-05-26T11:14:02.834Z,1.63
2019-05-26T11:16:27.066Z,1.93
2019-05-26T11:18:53.691Z,2.37
2019-05-26T11:21:20.267Z,2.40
2019-05-26T11:23:47.004Z,5.00
2019-05-26T11:26:13.621Z,4.80
2019-05-26T11:28:40.567Z,3.13
2019-05-26T11:31:07.195Z,1.80
2019-05-26T11:33:33.822Z,1.50
2019-05-26T11:36:00.435Z,1.50
2019-05-26T11:38:27.045Z,1.60
2019-05-26T11:40:53.861Z,1.30
2019-05-26T11:43:20.989Z,1.60
2019-05-26T11:45:47.647Z,1.40
2019-05-26T11:48:14.270Z,1.40
2019-05-26T11:50:40.887Z,1.40
2019-05-26T11:53:07.518Z,1.53
2019-05-26T11:55:34.139Z,1.50
2019-05-26T11:58:00.762Z,1.63
2019-05-26T12:00:27.482Z,1.50
2019-05-26T12:02:54.112Z,1.63
2019-05-26T12:05:20.714Z,1.80
2019-05-26T12:07:47.379Z,6.50
2019-05-26T12:10:14.623Z,1.43
2019-05-26T12:12:41.322Z,1.60
2019-05-26T12:15:08.511Z,1.40
2019-05-26T12:17:35.087Z,1.60
2019-05-26T12:20:05.102Z,1.50
2019-05-26T12:22:31.235Z,1.53
2019-05-26T12:24:58.054Z,1.60
2019-05-26T12:27:24.655Z,1.50
2019-05-26T12:29:51.245Z,1.70
2019-05-26T12:32:18.051Z,1.47
2019-05-26T12:34:44.643Z,1.60
2019-05-26T12:37:11.214Z,1.80
2019-05-26T12:39:37.815Z,1.70
2019-05-26T12:42:04.624Z,2.13
2019-05-26T12:44:31.184Z,2.00
2019-05-26T12:46:57.770Z,1.90
2019-05-26T12:49:27.529Z,1.90
2019-05-26T12:51:52.806Z,1.90
2019-05-26T12:54:19.386Z,1.90
2019-05-26T12:56:45.951Z,2.00
2019-05-26T12:59:12.534Z,2.10
2019-05-26T13:01:39.094Z,2.00
2019-05-26T13:04:05.674Z,1.90
2019-05-26T13:06:32.238Z,1.93
2019-05-26T13:08:58.810Z,1.87
2019-05-26T13:11:25.478Z,2.07
2019-05-26T13:13:52.110Z,1.90
2019-05-26T13:16:18.698Z,2.00
2019-05-26T13:18:45.293Z,2.20
2019-05-26T13:21:11.868Z,2.00
2019-05-26T13:23:38.439Z,1.50
2019-05-26T13:26:10.679Z,1.87
2019-05-26T13:28:37.235Z,1.97
2019-05-26T13:31:03.935Z,1.80
2019-05-26T13:33:31.004Z,2.00
2019-05-26T13:35:57.707Z,1.70
2019-05-26T13:38:24.270Z,1.87
2019-05-26T13:40:50.851Z,1.80
2019-05-26T13:43:17.406Z,1.80
2019-05-26T13:45:44.115Z,1.93
2019-05-26T13:48:10.706Z,1.90
2019-05-26T13:50:37.640Z,1.80
2019-05-26T13:53:04.227Z,1.80
2019-05-26T13:55:30.798Z,1.70
2019-05-26T13:57:57.393Z,1.83
2019-05-26T14:00:24.178Z,2.07
2019-05-26T14:03:03.186Z,2.07
2019-05-26T14:05:29.801Z,2.00
2019-05-26T14:07:56.426Z,2.77
2019-05-26T14:10:33.014Z,2.57
2019-05-26T14:12:59.821Z,2.30
2019-05-26T14:15:37.434Z,2.37
2019-05-26T14:17:55.260Z,2.33
2019-05-26T14:20:23.774Z,2.30
2019-05-26T14:22:50.412Z,2.40
2019-05-26T14:25:17.031Z,2.60
2019-05-26T14:27:43.662Z,2.60
2019-05-26T14:30:11.295Z,2.80
2019-05-26T14:32:38.056Z,2.63
2019-05-26T14:35:04.975Z,2.70
2019-05-26T14:37:31.627Z,2.70
2019-05-26T14:39:58.238Z,2.60
2019-05-26T14:42:24.850Z,2.70
2019-05-26T14:44:51.794Z,2.57
2019-05-26T14:47:18.406Z,2.80
2019-05-26T14:49:45.065Z,2.77
2019-05-26T14:52:11.679Z,2.53
2019-05-26T14:54:38.299Z,2.47
2019-05-26T14:57:04.898Z,2.70
2019-05-26T14:59:31.577Z,2.60
2019-05-26T15:01:58.165Z,2.40
2019-05-26T15:04:24.807Z,2.20
2019-05-26T15:06:51.426Z,2.60
2019-05-26T15:09:25.243Z,2.53
2019-05-26T15:11:46.546Z,9.10
2019-05-26T15:14:13.198Z,9.50
2019-05-26T15:16:39.825Z,2.70
2019-05-26T15:19:06.422Z,2.70
2019-05-26T15:21:33.030Z,3.00
2019-05-26T15:23:59.660Z,2.90
2019-05-26T15:26:26.368Z,2.80
2019-05-26T15:28:52.953Z,2.87
2019-05-26T15:31:19.604Z,2.60
2019-05-26T15:33:46.214Z,3.30
2019-05-26T15:36:15.962Z,2.50
2019-05-26T15:38:43.343Z,2.97
2019-05-26T15:41:09.898Z,2.80
2019-05-26T15:43:36.698Z,2.70
2019-05-26T15:46:03.316Z,2.63
2019-05-26T15:48:29.891Z,2.87
2019-05-26T15:50:56.504Z,2.50
2019-05-26T15:53:23.186Z,2.97
2019-05-26T15:55:49.790Z,2.50
2019-05-26T15:58:16.407Z,2.50
2019-05-26T16:00:43.034Z,2.40
2019-05-26T16:03:09.665Z,2.50
2019-05-26T16:05:36.256Z,2.43
2019-05-26T16:08:02.970Z,2.60
2019-05-26T16:10:29.571Z,2.87
2019-05-26T16:12:56.307Z,2.63
2019-05-26T16:15:22.973Z,2.50
2019-05-26T16:17:49.913Z,2.80
2019-05-26T16:20:16.629Z,6.67
2019-05-26T16:22:43.235Z,2.97
2019-05-26T16:25:10.059Z,2.50
2019-05-26T16:27:36.687Z,2.40
2019-05-26T16:30:06.884Z,2.80
2019-05-26T16:32:33.720Z,2.70
2019-05-26T16:35:00.314Z,2.70
2019-05-26T16:37:26.936Z,2.70
2019-05-26T16:39:55.917Z,2.83
2019-05-26T16:42:22.062Z,2.73
2019-05-26T16:44:48.662Z,2.90
2019-05-26T16:47:15.271Z,2.93
2019-05-26T16:49:41.867Z,2.70
2019-05-26T16:52:08.471Z,2.80
2019-05-26T16:54:35.095Z,2.60
2019-05-26T16:57:01.731Z,2.80
2019-05-26T16:59:28.354Z,3.00
2019-05-26T17:01:54.945Z,2.90
2019-05-26T17:04:21.677Z,3.07
2019-05-26T17:06:48.598Z,2.93
2019-05-26T17:09:15.202Z,2.97
2019-05-26T17:11:41.859Z,3.70
2019-05-26T17:14:08.518Z,3.13
2019-05-26T17:16:35.090Z,2.97
2019-05-26T17:19:01.753Z,2.60
2019-05-26T17:21:28.338Z,2.50
2019-05-26T17:23:54.942Z,2.40
2019-05-26T17:26:21.625Z,2.93
2019-05-26T17:28:49.158Z,2.83
2019-05-26T17:31:15.779Z,2.90
2019-05-26T17:33:42.386Z,2.67
2019-05-26T17:36:09.132Z,2.80
2019-05-26T17:38:35.838Z,3.03
2019-05-26T17:41:02.464Z,2.60
2019-05-26T17:43:29.102Z,2.63
2019-05-26T17:45:55.710Z,2.43
2019-05-26T17:48:22.326Z,2.43
2019-05-26T17:50:48.956Z,2.40
2019-05-26T17:53:15.579Z,2.43
2019-05-26T17:55:42.731Z,2.43
2019-05-26T17:58:09.434Z,2.50
2019-05-26T18:00:36.067Z,2.20
2019-05-26T18:03:02.729Z,2.30
2019-05-26T18:05:29.635Z,2.23
2019-05-26T18:07:56.298Z,2.37
2019-05-26T18:10:22.978Z,2.00
2019-05-26T18:12:49.538Z,2.17
2019-05-26T18:15:16.866Z,2.20
2019-05-26T18:17:47.353Z,2.40
2019-05-26T18:20:13.129Z,2.20
2019-05-26T18:22:39.760Z,7.03
2019-05-26T18:25:07.106Z,8.07
2019-05-26T18:27:33.899Z,17.80
2019-05-26T18:30:00.495Z,2.27
2019-05-26T18:32:27.061Z,2.00
2019-05-26T18:34:53.631Z,2.07
2019-05-26T18:37:20.222Z,2.07
2019-05-26T18:39:46.790Z,2.20
2019-05-26T18:42:13.418Z,2.30
2019-05-26T18:44:40.132Z,1.97
2019-05-26T18:47:06.771Z,2.20
2019-05-26T18:49:33.331Z,2.43
2019-05-26T18:52:00.115Z,2.70
2019-05-26T18:54:26.784Z,2.77
2019-05-26T18:56:53.430Z,2.43
2019-05-26T18:59:20.010Z,2.37
2019-05-26T19:01:46.689Z,12.20
2019-05-26T19:04:13.267Z,92.40
2019-05-26T19:06:39.842Z,48.73
2019-05-26T19:09:07.214Z,6.17
2019-05-26T19:11:33.782Z,105.47
2019-05-26T19:14:00.363Z,76.33
2019-05-26T19:16:26.927Z,37.40
2019-05-26T19:18:53.503Z,10.53
2019-05-26T19:23:48.886Z,3.40
2019-05-26T19:26:15.475Z,2.73
2019-05-26T19:28:42.067Z,2.70
2019-05-26T19:31:08.622Z,2.70
2019-05-26T19:33:35.421Z,2.13
2019-05-26T19:36:01.979Z,2.60
2019-05-26T19:38:28.574Z,2.50
2019-05-26T19:40:55.167Z,2.20
2019-05-26T19:43:21.811Z,2.53
2019-05-26T19:45:48.501Z,2.20
2019-05-26T19:48:15.133Z,2.20
2019-05-26T19:50:41.788Z,2.10
2019-05-26T19:53:08.386Z,2.10
2019-05-26T19:55:34.945Z,2.40
2019-05-26T19:58:01.537Z,2.50
2019-05-26T20:00:28.583Z,2.80
2019-05-26T20:02:55.322Z,3.13
2019-05-26T20:05:21.952Z,3.23
2019-05-26T20:07:48.563Z,3.90
2019-05-26T20:10:15.486Z,4.00
2019-05-26T20:12:42.096Z,3.93
2019-05-26T20:15:08.918Z,4.40
2019-05-26T20:17:35.529Z,4.70
2019-05-26T20:20:03.858Z,4.77
2019-05-26T20:22:30.518Z,4.87
2019-05-26T20:24:57.458Z,4.70
2019-05-26T20:27:24.162Z,4.50
2019-05-26T20:29:51.158Z,4.97
2019-05-26T20:32:18.254Z,5.03
2019-05-26T20:34:44.888Z,4.83
2019-05-26T20:40:06.991Z,4.53
2019-05-26T20:42:33.809Z,4.27
2019-05-26T20:45:00.438Z,4.03
2019-05-26T20:47:27.031Z,4.17
2019-05-26T20:49:53.706Z,3.60
2019-05-26T20:52:20.358Z,4.10
2019-05-26T20:54:46.999Z,4.30
2019-05-26T20:57:13.642Z,4.20
2019-05-26T20:59:40.250Z,4.00
2019-05-26T21:02:06.883Z,4.00
2019-05-26T21:04:33.503Z,4.50
2019-05-26T21:07:00.135Z,4.83
2019-05-26T21:09:26.752Z,5.00
2019-05-26T21:11:53.411Z,5.13
2019-05-26T21:14:20.110Z,5.10
2019-05-26T21:16:59.066Z,5.03
2019-05-26T21:19:25.978Z,5.80
2019-05-26T21:21:52.609Z,5.50
2019-05-26T21:24:19.239Z,6.13
2019-05-26T21:26:46.100Z,5.90
2019-05-26T21:29:13.130Z,5.90
2019-05-26T21:31:39.959Z,5.57
2019-05-26T21:34:06.582Z,6.47
2019-05-26T21:36:33.194Z,6.30
2019-05-26T21:38:59.826Z,5.57
2019-05-26T21:41:26.436Z,6.13
2019-05-26T21:43:53.075Z,6.03
2019-05-26T21:46:19.690Z,5.70
2019-05-26T21:48:46.314Z,6.70
2019-05-26T21:51:12.926Z,7.37
2019-05-26T21:53:39.555Z,7.10
2019-05-26T21:56:06.180Z,7.30
2019-05-26T21:58:32.915Z,7.47
2019-05-26T22:00:59.629Z,7.40
2019-05-26T22:03:26.266Z,7.37
2019-05-26T22:05:52.858Z,8.00
2019-05-26T22:08:19.438Z,7.47
2019-05-26T22:10:46.006Z,7.33
2019-05-26T22:13:12.607Z,7.50
2019-05-26T22:15:39.166Z,7.53
2019-05-26T22:18:05.734Z,7.57
2019-05-26T22:20:32.323Z,6.67
2019-05-26T22:22:58.885Z,6.93
2019-05-26T22:25:25.490Z,7.57
2019-05-26T22:27:52.057Z,6.40
2019-05-26T22:30:19.521Z,6.03
2019-05-26T22:32:46.423Z,5.70
2019-05-26T22:35:12.993Z,5.27
2019-05-26T22:37:39.576Z,4.83
2019-05-26T22:40:06.469Z,4.87
2019-05-26T22:42:33.014Z,4.50
2019-05-26T22:44:59.598Z,4.53
2019-05-26T22:47:26.279Z,4.60
2019-05-26T22:49:52.942Z,4.67
2019-05-26T22:52:19.526Z,4.50
2019-05-26T22:54:46.083Z,4.03
2019-05-26T22:57:12.900Z,4.13
2019-05-26T22:59:39.723Z,4.30
2019-05-26T23:02:06.568Z,3.90
2019-05-26T23:04:33.126Z,3.73
2019-05-26T23:06:59.695Z,3.90
2019-05-26T23:09:26.263Z,3.97
2019-05-26T23:11:52.838Z,3.57
2019-05-26T23:14:19.579Z,3.40
2019-05-26T23:16:46.207Z,3.90
2019-05-26T23:19:19.268Z,4.20
2019-05-26T23:21:41.316Z,4.70
2019-05-26T23:24:07.898Z,4.40
2019-05-26T23:26:34.476Z,4.60
2019-05-26T23:29:01.064Z,4.40
2019-05-26T23:31:27.637Z,4.27
2019-05-26T23:33:54.202Z,4.27
2019-05-26T23:36:20.783Z,4.43
2019-05-26T23:38:47.339Z,3.90
2019-05-26T23:41:13.923Z,3.70
2019-05-26T23:43:40.483Z,4.00
2019-05-26T23:46:07.082Z,3.90
2019-05-26T23:48:33.643Z,3.60
2019-05-26T23:51:00.223Z,3.77
2019-05-26T23:53:26.784Z,3.67
2019-05-26T23:55:53.385Z,3.60
2019-05-26T23:58:20.014Z,3.50
